Vest, KY (41772)

5:10 PM EDT on July 06, 2015 (GMT -0400)
Carroll | | Change Station
CLOSE
Current Station
Airport
Location: Jackson,
Elevation: 1381 ft
Nearby Weather Stations

Elev 1381 ft 37.59 °N, 83.31 °W | Updated 17 minutes ago

Partly Cloudy
Partly Cloudy
81 °F
Feels Like 83 °F
N
0
Wind Variable Wind from North

Today
High -- | Low -- °F
--% Chance of Precip.
Yesterday
High -- | Low -- °F
Precip. -- in
6:17 AM 8:56 PM
Waning Gibbous, 72% visible
Pressure 30.06 in
Visibility 9.0 miles
Clouds Clear
Heat Index 83 °F
Dew Point 67 °F
Humidity 62%
Rainfall 0.31 in
Snow Depth Not available.
UV 7 out of 12
Pollen .30 out of 12
Air Quality Not available.
Flu Activity Not available.
METAR KJKL 062053Z AUTO 00000KT 9SM CLR 27/19 A3011 RMK AO2 SLP180 T02720194 58013

More Conditions Fewer Conditions

Pressure 30.06 in
Visibility 9.0 miles
Clouds Clear
Heat Index 83 °F
Dew Point 67 °F
Humidity 62%
Rainfall 0.31 in
Snow Depth Not available.
UV 7 out of 12
Pollen .30 out of 12
Air Quality Not available.
Flu Activity Not available.
METAR KJKL 062053Z AUTO 00000KT 9SM CLR 27/19 A3011 RMK AO2 SLP180 T02720194 58013

More Conditions Fewer Conditions

10-Day Weather Forecast

×

Almanac

Astronomy

Jul. 06, 2015 Rise Set
Actual Time
Civil Twilight
Nautical Twilight
Astronomical Twilight
Moon
Length of Visible Light
Length of Day
Tomorrow will be .
, % of the Moon is Illuminated

Today's Extremes

State Highs State Lows

Community

WunderPhotos

Upload Photos

1,835,651 photos uploaded!

WunderBlogs® & News

Nearby

Air Quality

  Air Quality AQ Index Pollutant
Not available.

Snow Depth

Station Depth Elevation

Earthquake Activity

City Distance Mag. Time & Date
Minimum magnitude displayed is 2.5.

Coastal Water Temperatures

Place Temperature

Stations

Nearby Weather Stations

Station Location Temp. Windchill Dew Point Humidity Wind Precip. Elev Updated Type